Terminal Aerodrome Forecast
Issued by NWS

Home | Current Version | Previous Version | Text Only | Print | Product List | Glossary On
Versions: 1 2 3 4 5 6 7 8 9 10 11 12 13 14 15 16 17 18
000
FTUS42 KMLB 241133
TAFSUA
TAF
KSUA 241133Z 2412/2512 10007KT P6SM VCSH SCT020 SCT030
      TEMPO 2412/2413 BKN025
     FM241400 09012KT P6SM SCT040
     FM241600 10016G24KT P6SM FEW040
     FM250000 01015KT P6SM FEW030 SCT250=

USA.gov is the U.S. government's official web portal to all federal, state and local government web resources and services.